.
WxDataArchive / Data Records for 2007-04-29
2007-04-28 April 2007 2007-04-30

Data Records for Sunday, 29 April 2007

Time	Temp	Chill	HIndex	Humid	Dewpt	 Wind 	HiWind	WindDir	Rain 	Barom 
-----	----	-----	------	-----	-----	------	------	-------	-----	----- 
00:00	55.7	55.7	55.7	70	46.1	0	1	248	0.00	29.896 
00:05	55.7	55.7	55.7	70	46.1	0	1	248	0.00	29.891 
00:10	55.6	55.6	55.6	70	46.0	0	1	248	0.00	29.892 
00:15	55.6	55.6	55.6	70	46.0	0	1	248	0.00	29.896 
00:20	55.6	55.6	55.6	70	46.0	0	1	248	0.00	29.898 
00:25	55.3	55.3	55.3	70	45.7	0	0	---	0.00	29.899 
00:30	55.1	55.1	55.1	70	45.5	0	1	248	0.00	29.899 
00:35	55.0	55.0	55.0	71	45.8	0	1	248	0.00	29.902 
00:40	54.8	54.8	54.8	71	45.6	0	1	248	0.00	29.904 
00:45	54.7	54.7	54.7	71	45.5	0	1	248	0.00	29.906 
00:50	54.7	54.7	54.7	71	45.5	0	0	---	0.00	29.908 
00:55	54.7	54.7	54.7	71	45.5	0	1	248	0.00	29.908 
01:00	54.8	54.8	54.8	70	45.2	0	1	248	0.00	29.909 
01:05	55.0	55.0	55.0	70	45.4	0	1	248	0.00	29.905 
01:10	55.0	55.0	55.0	70	45.4	0	1	248	0.00	29.904 
01:15	55.0	55.0	55.0	70	45.4	0	1	248	0.00	29.905 
01:20	54.8	54.8	54.8	70	45.2	0	1	248	0.00	29.906 
01:25	54.7	54.7	54.7	70	45.1	0	2	248	0.00	29.907 
01:30	54.5	54.5	54.5	70	44.9	0	1	248	0.00	29.908 
01:35	54.4	54.4	54.4	70	44.8	0	2	248	0.00	29.908 
01:40	54.4	54.4	54.4	71	45.2	0	1	248	0.00	29.911 
01:45	54.4	54.4	54.4	70	44.8	0	1	248	0.00	29.913 
01:50	54.2	54.2	54.2	71	45.0	0	1	248	0.00	29.913 
01:55	54.1	54.1	54.1	71	44.9	0	1	248	0.00	29.914 
02:00	53.9	53.9	53.9	71	44.7	0	1	248	0.00	29.914 
02:05	53.6	53.6	53.6	72	44.8	0	1	248	0.00	29.912 
02:10	53.5	53.5	53.5	72	44.7	0	1	248	0.00	29.911 
02:15	53.2	53.2	53.2	73	44.8	0	0	---	0.00	29.913 
02:20	53.1	53.1	53.1	73	44.7	0	1	248	0.00	29.915 
02:25	52.9	52.9	52.9	73	44.5	0	1	248	0.00	29.915 
02:30	52.9	52.9	52.9	73	44.5	0	1	248	0.00	29.916 
02:35	52.9	52.9	52.9	73	44.5	0	1	248	0.00	29.917 
02:40	52.9	52.9	52.9	73	44.5	0	1	248	0.00	29.918 
02:45	52.8	52.8	52.8	73	44.4	0	1	248	0.00	29.919 
02:50	52.6	52.6	52.6	73	44.2	0	0	---	0.00	29.922 
02:55	52.3	52.3	52.3	73	43.9	0	1	248	0.00	29.922 
03:00	52.2	52.2	52.2	74	44.2	0	1	248	0.00	29.921 
03:05	52.0	52.0	52.0	74	44.0	0	0	---	0.00	29.923 
03:10	51.9	51.9	51.9	74	43.9	0	1	248	0.00	29.926 
03:15	51.7	51.7	51.7	74	43.7	0	1	248	0.00	29.927 
03:20	51.7	51.7	51.7	74	43.7	0	1	248	0.00	29.929 
03:25	51.6	51.6	51.6	74	43.6	0	1	248	0.00	29.929 
03:30	51.3	51.3	51.3	75	43.6	0	0	---	0.00	29.931 
03:35	51.0	51.0	51.0	75	43.4	0	0	---	0.00	29.931 
03:40	50.8	50.8	50.8	76	43.5	0	0	---	0.00	29.932 
03:45	50.5	50.5	50.5	76	43.2	0	0	---	0.00	29.932 
03:50	50.4	50.4	50.4	76	43.1	0	0	---	0.00	29.931 
03:55	50.1	50.1	50.1	77	43.2	0	1	248	0.00	29.932 
04:00	49.9	49.9	49.9	77	43.0	0	0	---	0.00	29.933 
04:05	49.6	49.6	49.6	77	42.7	0	0	---	0.00	29.934 
04:10	49.5	49.5	49.5	78	42.9	0	0	---	0.00	29.935 
04:15	49.4	49.4	49.4	78	42.8	0	0	---	0.00	29.936 
04:20	49.1	49.1	49.1	78	42.5	0	0	---	0.00	29.939 
04:25	48.9	48.9	48.9	79	42.7	0	0	---	0.00	29.939 
04:30	48.8	48.8	48.8	79	42.6	0	0	---	0.00	29.939 
04:35	48.8	48.8	48.8	79	42.6	0	1	248	0.00	29.941 
04:40	48.6	48.6	48.6	79	42.4	0	0	---	0.00	29.943 
04:45	48.5	48.5	48.5	79	42.3	0	0	---	0.00	29.947 
04:50	48.2	48.2	48.2	80	42.3	0	0	---	0.00	29.949 
04:55	48.0	48.0	48.0	80	42.1	0	0	---	0.00	29.951 
05:00	47.9	47.9	47.9	80	42.0	0	0	---	0.00	29.950 
05:05	47.7	47.7	47.7	81	42.2	0	0	---	0.00	29.950 
05:10	47.4	47.4	47.4	81	41.9	0	0	---	0.00	29.951 
05:15	47.1	47.1	47.1	81	41.6	0	0	---	0.00	29.952 
05:20	46.8	46.8	46.8	82	41.6	0	0	---	0.00	29.954 
05:25	46.7	46.7	46.7	83	41.8	0	0	---	0.00	29.956 
05:30	46.5	46.5	46.5	83	41.6	0	0	---	0.00	29.961 
05:35	46.5	46.5	46.5	83	41.6	0	0	---	0.00	29.963 
05:40	46.5	46.5	46.5	84	41.9	0	0	---	0.00	29.967 
05:45	46.4	46.4	46.4	83	41.5	0	0	---	0.00	29.970 
05:50	46.4	46.4	46.4	84	41.8	0	0	---	0.00	29.974 
05:55	46.2	46.2	46.2	84	41.6	0	0	---	0.00	29.977 
06:00	46.2	46.2	46.2	84	41.6	0	0	---	0.00	29.981 
06:05	46.2	46.2	46.2	84	41.6	0	0	---	0.00	29.983 
06:10	46.2	46.2	46.2	84	41.6	0	0	---	0.00	29.984 
06:15	46.5	46.5	46.5	84	41.9	0	0	---	0.00	29.986 
06:20	47.0	47.0	47.0	84	42.4	0	0	---	0.00	29.987 
06:25	47.4	47.4	47.4	83	42.5	0	0	---	0.00	29.988 
06:30	48.0	48.0	48.0	82	42.8	0	0	---	0.00	29.989 
06:35	48.8	48.8	48.8	81	43.2	0	0	---	0.00	29.992 
06:40	49.5	49.5	49.5	79	43.3	0	0	---	0.00	29.995 
06:45	50.2	50.2	50.2	78	43.6	0	0	---	0.00	29.996 
06:50	51.0	51.0	51.0	76	43.7	0	1	112	0.00	29.996 
06:55	51.6	51.6	51.6	75	43.9	0	2	112	0.00	29.998 
07:00	52.2	52.2	52.2	73	43.8	0	2	112	0.00	29.997 
07:05	52.6	52.6	52.6	72	43.8	0	1	112	0.00	30.000 
07:10	53.2	53.2	53.2	72	44.4	0	1	338	0.00	30.000 
07:15	53.6	53.6	53.6	70	44.1	0	1	338	0.00	30.000 
07:20	54.1	54.1	54.1	69	44.2	0	3	338	0.00	30.000 
07:25	54.7	54.7	54.7	68	44.3	0	2	315	0.00	29.999 
07:30	55.1	55.1	55.1	67	44.3	0	2	315	0.00	30.004 
07:35	55.6	55.6	55.6	66	44.4	0	2	315	0.00	30.005 
07:40	56.2	56.2	56.2	65	44.6	1	3	292	0.00	30.007 
07:45	56.7	56.7	56.7	67	45.9	0	1	292	0.00	30.008 
07:50	57.3	57.3	57.3	63	44.8	0	2	292	0.00	30.009 
07:55	57.8	57.8	57.8	62	44.9	0	2	292	0.00	30.010 
08:00	58.0	58.0	58.0	61	44.6	1	2	292	0.00	30.009 
08:05	58.3	58.3	58.3	62	45.3	0	1	292	0.00	30.012 
08:10	59.0	59.0	59.0	64	46.8	0	2	292	0.00	30.012 
08:15	59.6	59.6	59.6	61	46.1	0	1	292	0.00	30.014 
08:20	60.1	60.1	60.1	60	46.2	1	3	292	0.00	30.015 
08:25	60.4	60.4	60.4	58	45.6	1	2	292	0.00	30.016 
08:30	60.9	60.9	60.9	59	46.5	0	2	292	0.00	30.017 
08:35	61.3	61.3	61.3	54	44.5	1	3	248	0.00	30.017 
08:40	61.5	61.5	61.5	56	45.7	1	3	270	0.00	30.018 
08:45	62.0	62.0	62.0	56	46.1	1	6	270	0.00	30.021 
08:50	62.1	62.1	62.1	53	44.8	1	3	270	0.00	30.019 
08:55	62.4	62.4	62.4	52	44.5	0	2	270	0.00	30.019 
09:00	62.9	62.9	62.9	53	45.5	1	2	270	0.00	30.018 
09:05	63.2	63.2	63.2	50	44.2	1	2	270	0.00	30.021 
09:10	63.5	63.5	63.5	48	43.5	0	2	270	0.00	30.018 
09:15	64.0	64.0	64.0	47	43.4	1	3	270	0.00	30.018 
09:20	64.3	64.3	64.3	47	43.6	0	2	270	0.00	30.017 
09:25	64.3	64.3	64.3	42	40.7	1	3	270	0.00	30.017 
09:30	64.5	64.5	64.5	43	41.5	1	3	270	0.00	30.017 
09:35	65.0	65.0	65.0	39	39.4	1	3	248	0.00	30.018 
09:40	65.3	65.3	65.3	45	43.4	1	2	248	0.00	30.019 
09:45	65.6	65.6	65.6	39	40.0	1	3	248	0.00	30.018 
09:50	65.8	65.8	65.8	38	39.5	1	4	248	0.00	30.019 
09:55	66.0	66.0	66.0	38	39.7	0	2	248	0.00	30.016 
10:00	66.8	66.8	66.8	37	39.7	1	4	68	0.00	30.013 
10:05	66.9	66.9	66.9	37	39.8	1	3	68	0.00	30.014 
10:10	67.4	67.4	67.4	32	36.5	1	2	68	0.00	30.014 
10:15	67.6	67.6	67.6	35	39.0	1	2	68	0.00	30.013 
10:20	67.6	67.6	67.6	37	40.4	1	3	292	0.00	30.015 
10:25	67.6	67.6	67.6	39	41.8	0	1	292	0.00	30.016 
10:30	67.8	67.8	67.8	38	41.3	1	3	270	0.00	30.014 
10:35	67.9	67.9	67.9	32	36.9	0	1	270	0.00	30.013 
10:40	68.9	68.9	68.9	34	39.4	1	3	270	0.00	30.013 
10:45	69.3	69.3	69.3	38	42.6	1	2	270	0.00	30.014 
10:50	69.8	69.8	69.8	28	35.2	1	3	270	0.00	30.016 
10:55	69.8	69.8	69.8	34	40.2	2	4	112	0.00	30.011 
11:00	69.8	69.8	69.8	36	41.6	0	2	112	0.00	30.011 
11:05	69.4	69.4	69.4	33	39.0	1	3	0	0.00	30.012 
11:10	69.4	69.4	69.4	34	39.8	1	3	315	0.00	30.011 
11:15	69.6	69.6	69.6	38	42.9	1	2	338	0.00	30.008 
11:20	69.9	69.9	69.9	31	37.9	1	3	270	0.00	30.008 
11:25	70.1	70.1	70.1	38	43.3	1	3	270	0.00	30.007 
11:30	70.4	70.4	70.4	31	38.3	1	4	270	0.00	30.007 
11:35	70.4	70.4	70.4	32	39.1	1	4	248	0.00	30.006 
11:40	70.9	70.9	70.9	38	44.0	1	3	248	0.00	30.005 
11:45	71.3	71.3	71.3	34	41.5	2	4	248	0.00	30.004 
11:50	71.5	71.5	71.5	39	45.2	1	3	225	0.00	30.001 
11:55	71.6	71.6	71.6	32	40.2	2	7	248	0.00	29.996 
12:00	71.8	71.8	71.8	35	42.7	2	6	248	0.00	29.993 
12:05	72.1	72.1	72.1	33	41.4	1	3	248	0.00	29.993 
12:10	72.7	72.7	72.7	35	43.5	1	3	248	0.00	29.989 
12:15	72.8	72.8	72.8	32	41.2	1	3	112	0.00	29.989 
12:20	72.7	72.7	72.7	36	44.2	2	4	248	0.00	29.989 
12:25	73.0	73.0	73.0	36	44.5	1	4	225	0.00	29.988 
12:30	73.2	73.2	73.2	34	43.1	2	5	248	0.00	29.988 
12:35	73.3	73.3	73.3	32	41.6	1	4	225	0.00	29.985 
12:40	73.5	73.5	73.5	30	40.2	1	4	202	0.00	29.982 
12:45	73.7	73.7	73.7	30	40.3	2	4	270	0.00	29.981 
12:50	73.7	73.7	73.7	35	44.3	2	4	248	0.00	29.976 
12:55	74.0	74.0	74.0	30	40.6	2	6	248	0.00	29.974 
13:00	73.9	73.9	73.9	34	43.7	2	6	248	0.00	29.972 
13:05	73.9	73.9	73.9	31	41.3	2	10	270	0.00	29.972 
13:10	73.9	73.9	73.9	31	41.3	2	5	270	0.00	29.971 
13:15	74.4	74.4	74.4	30	40.9	2	6	248	0.00	29.967 
13:20	74.2	74.2	74.2	35	44.8	2	6	248	0.00	29.964 
13:25	74.6	74.6	74.6	36	45.9	2	6	248	0.00	29.961 
13:30	74.4	74.4	74.4	33	43.4	4	9	270	0.00	29.960 
13:35	74.6	74.6	74.6	35	45.1	2	6	270	0.00	29.957 
13:40	75.1	75.1	77.0	31	42.4	2	5	248	0.00	29.956 
13:45	75.3	75.3	77.0	30	41.7	3	7	248	0.00	29.957 
13:50	75.3	75.3	77.4	35	45.7	2	7	248	0.00	29.953 
13:55	75.8	75.8	77.3	32	43.8	3	11	248	0.00	29.949 
14:00	75.6	75.6	77.2	31	42.8	3	9	248	0.00	29.943 
14:05	76.0	76.0	77.4	32	44.0	3	7	248	0.00	29.944 
14:10	76.1	76.1	77.4	32	44.1	2	6	248	0.00	29.943 
14:15	76.0	76.0	77.4	32	44.0	3	6	248	0.00	29.943 
14:20	76.3	76.3	77.6	34	45.8	2	5	248	0.00	29.944 
14:25	76.7	76.7	77.7	32	44.6	2	5	248	0.00	29.942 
14:30	76.8	76.8	77.8	33	45.5	3	10	248	0.00	29.943 
14:35	77.2	77.2	78.0	34	46.6	2	6	248	0.00	29.941 
14:40	77.7	77.7	78.2	34	47.1	3	13	270	0.00	29.934 
14:45	77.0	77.0	78.0	35	47.2	5	13	248	0.00	29.935 
14:50	77.0	77.0	77.9	33	45.7	3	9	248	0.00	29.932 
14:55	76.8	76.8	77.8	33	45.5	4	7	270	0.00	29.931 
15:00	76.7	76.7	77.8	34	46.2	3	10	270	0.00	29.929 
15:05	76.7	76.7	77.7	32	44.6	4	7	270	0.00	29.927 
15:10	76.5	76.5	77.7	33	45.2	5	11	270	0.00	29.927 
15:15	76.5	76.5	77.7	33	45.2	6	17	270	0.00	29.926 
15:20	76.3	76.3	77.7	35	46.6	5	10	248	0.00	29.925 
15:25	76.5	76.5	77.7	33	45.2	5	13	248	0.00	29.924 
15:30	76.7	76.7	77.7	33	45.4	5	12	270	0.00	29.925 
15:35	76.5	76.5	77.7	33	45.2	4	11	270	0.00	29.923 
15:40	76.7	76.7	78.0	37	48.4	3	6	270	0.00	29.920 
15:45	76.8	76.8	77.7	32	44.7	5	16	248	0.00	29.919 
15:50	77.2	77.2	78.1	35	47.4	4	13	248	0.00	29.917 
15:55	77.2	77.2	78.0	34	46.6	4	12	248	0.00	29.914 
16:00	77.2	77.2	78.0	34	46.6	5	15	270	0.00	29.913 
16:05	77.0	77.0	78.0	35	47.2	4	7	270	0.00	29.915 
16:10	77.2	77.2	78.1	35	47.4	4	9	270	0.00	29.913 
16:15	77.2	77.2	78.0	34	46.6	4	11	270	0.00	29.913 
16:20	77.4	77.4	78.1	34	46.8	4	12	270	0.00	29.911 
16:25	77.2	77.2	77.9	33	45.8	7	16	270	0.00	29.912 
16:30	77.2	77.2	78.1	36	48.2	4	7	270	0.00	29.913 
16:35	77.4	77.4	78.2	36	48.3	3	7	270	0.00	29.912 
16:40	77.6	77.6	78.2	35	47.8	4	7	248	0.00	29.910 
16:45	77.7	77.7	78.3	36	48.6	3	9	248	0.00	29.906 
16:50	77.6	77.6	78.3	36	48.5	3	7	270	0.00	29.905 
16:55	77.0	77.0	78.1	38	49.4	1	5	248	0.00	29.904 
17:00	77.0	77.0	78.0	36	48.0	4	10	248	0.00	29.899 
17:05	77.6	77.6	78.2	35	47.8	4	6	270	0.00	29.898 
17:10	77.7	77.7	78.3	35	47.8	3	6	270	0.00	29.898 
17:15	77.7	77.7	78.2	34	47.1	4	11	248	0.00	29.898 
17:20	77.7	77.7	78.2	34	47.1	3	7	270	0.00	29.897 
17:25	77.7	77.7	78.2	34	47.1	4	10	248	0.00	29.895 
17:30	77.7	77.7	78.2	34	47.1	4	9	270	0.00	29.895 
17:35	77.6	77.6	78.1	33	46.2	5	11	248	0.00	29.893 
17:40	77.6	77.6	78.1	33	46.2	3	9	270	0.00	29.895 
17:45	77.4	77.4	78.1	34	46.8	3	7	270	0.00	29.896 
17:50	77.4	77.4	78.1	34	46.8	3	7	270	0.00	29.892 
17:55	77.4	77.4	78.1	34	46.8	3	6	248	0.00	29.891 
18:00	77.2	77.2	78.1	36	48.2	2	7	248	0.00	29.888 
18:05	77.2	77.2	77.9	33	45.8	4	10	248	0.00	29.881 
18:10	77.0	77.0	77.9	33	45.7	3	9	248	0.00	29.879 
18:15	77.0	77.0	77.9	34	46.5	3	7	248	0.00	29.879 
18:20	77.0	77.0	77.9	34	46.5	5	11	248	0.00	29.878 
18:25	76.8	76.8	77.8	34	46.3	3	6	248	0.00	29.879 
18:30	76.7	76.7	77.8	34	46.2	5	14	248	0.00	29.878 
18:35	76.5	76.5	77.7	34	46.0	4	10	248	0.00	29.878 
18:40	76.3	76.3	77.6	34	45.8	4	9	248	0.00	29.876 
18:45	76.1	76.1	77.6	34	45.7	4	14	248	0.00	29.876 
18:50	76.0	76.0	77.5	34	45.6	4	11	248	0.00	29.875 
18:55	76.0	76.0	77.5	34	45.6	3	11	248	0.00	29.876 
19:00	75.8	75.8	77.5	35	46.2	3	6	248	0.00	29.876 
19:05	75.8	75.8	77.5	35	46.2	3	9	248	0.00	29.870 
19:10	75.4	75.4	77.4	35	45.8	3	6	248	0.00	29.871 
19:15	75.3	75.3	77.4	36	46.5	3	9	248	0.00	29.868 
19:20	75.1	75.1	77.3	35	45.6	4	12	248	0.00	29.867 
19:25	74.9	74.9	74.9	35	45.4	3	6	248	0.00	29.869 
19:30	74.7	74.7	74.7	35	45.2	3	10	248	0.00	29.867 
19:35	74.6	74.6	74.6	35	45.1	3	9	248	0.00	29.864 
19:40	74.6	74.6	74.6	36	45.9	2	6	248	0.00	29.862 
19:45	74.2	74.2	74.2	36	45.5	3	7	248	0.00	29.861 
19:50	74.0	74.0	74.0	36	45.3	2	6	248	0.00	29.861 
19:55	73.9	73.9	73.9	36	45.2	3	5	248	0.00	29.859 
20:00	73.7	73.7	73.7	36	45.1	3	8	248	0.00	29.859 
20:05	73.5	73.5	73.5	37	45.6	2	4	225	0.00	29.856 
20:10	73.3	73.3	73.3	37	45.4	3	5	248	0.00	29.855 
20:15	73.2	73.2	73.2	38	46.1	2	7	248	0.00	29.854 
20:20	73.0	73.0	73.0	38	45.9	2	5	248	0.00	29.854 
20:25	72.7	72.7	72.7	39	46.3	2	4	248	0.00	29.855 
20:30	72.3	72.3	72.3	39	45.9	3	5	248	0.00	29.855 
20:35	72.3	72.3	72.3	40	46.6	2	5	248	0.00	29.857 
20:40	72.0	72.0	72.0	40	46.3	2	4	248	0.00	29.857 
20:45	71.6	71.6	71.6	41	46.6	2	5	248	0.00	29.856 
20:50	71.5	71.5	71.5	41	46.5	2	5	225	0.00	29.852 
20:55	71.5	71.5	71.5	41	46.5	2	5	248	0.00	29.854 
21:00	71.1	71.1	71.1	41	46.2	1	4	248	0.00	29.855 
21:05	70.9	70.9	70.9	41	46.0	2	4	248	0.00	29.854 
21:10	70.8	70.8	70.8	42	46.6	2	4	225	0.00	29.855 
21:15	70.4	70.4	70.4	42	46.2	2	4	225	0.00	29.857 
21:20	70.3	70.3	70.3	42	46.1	1	3	248	0.00	29.857 
21:25	70.1	70.1	70.1	42	45.9	1	3	248	0.00	29.857 
21:30	69.9	69.9	69.9	43	46.4	1	5	248	0.00	29.857 
21:35	69.8	69.8	69.8	43	46.3	1	4	248	0.00	29.859 
21:40	69.8	69.8	69.8	43	46.3	1	4	248	0.00	29.858 
21:45	69.6	69.6	69.6	43	46.1	1	4	248	0.00	29.857 
21:50	69.4	69.4	69.4	43	45.9	1	5	248	0.00	29.856 
21:55	69.4	69.4	69.4	44	46.5	2	6	248	0.00	29.855 
22:00	69.3	69.3	69.3	44	46.4	1	5	248	0.00	29.855 
22:05	69.1	69.1	69.1	44	46.3	2	6	248	0.00	29.853 
22:10	69.3	69.3	69.3	44	46.4	2	7	248	0.00	29.850 
22:15	69.4	69.4	69.4	43	45.9	3	9	248	0.00	29.849 
22:20	69.4	69.4	69.4	43	45.9	3	9	248	0.00	29.846 
22:25	69.6	69.6	69.6	43	46.1	3	5	248	0.00	29.842 
22:30	69.4	69.4	69.4	43	45.9	2	6	248	0.00	29.840 
22:35	69.4	69.4	69.4	43	45.9	2	5	248	0.00	29.838 
22:40	69.3	69.3	69.3	43	45.8	3	10	248	0.00	29.836 
22:45	69.3	69.3	69.3	43	45.8	2	6	248	0.00	29.838 
22:50	69.1	69.1	69.1	44	46.3	3	6	248	0.00	29.838 
22:55	68.8	68.8	68.8	45	46.6	2	5	248	0.00	29.839 
23:00	68.4	68.4	68.4	45	46.2	3	7	248	0.00	29.837 
23:05	68.3	68.3	68.3	46	46.7	2	5	248	0.00	29.836 
23:10	68.1	68.1	68.1	46	46.5	2	7	248	0.00	29.835 
23:15	67.9	67.9	67.9	46	46.3	2	5	248	0.00	29.833 
23:20	67.8	67.8	67.8	47	46.8	3	5	248	0.00	29.826 
23:25	67.8	67.8	67.8	47	46.8	2	5	248	0.00	29.826 
23:30	67.8	67.8	67.8	46	46.3	2	6	248	0.00	29.827 
23:35	67.9	67.9	67.9	46	46.3	3	7	248	0.00	29.828 
23:40	68.1	68.1	68.1	46	46.5	2	6	248	0.00	29.827 
23:45	67.9	67.9	67.9	46	46.3	3	10	248	0.00	29.824 
23:50	67.9	67.9	67.9	46	46.3	2	6	248	0.00	29.826 
23:55	67.9	67.9	67.9	46	46.3	2	9	248	0.00	29.828 

CoCoRaHS
IN-AL-39
A2 Web Hosting
Creative Commons License
GoDaddy
Look for:

loaded 2017-10-18 07:24:02 • last modified 2010-11-18 10:43:29
Privacy PolicyDisclaimer
• wx.awcolley.com is powered by PmWiki v.2002016 •
• all content (unless otherwise noted) © 2017 A W Colley